^^
Saratoga-Weather Station Historical Data
Daily Summary for June 4, 2020 Units:  Both    English   Metric
Daily Weekly Monthly Yearly Custom
  High: Low: Average:
Temperature: 61.9 °F /  16.6 °C 33.1 °F /  0.6 °C 46.6 °F /  8.1 °C
Dew Point: 38.1 °F /  3.4 °C 30.2 °F /  -1 °C 34.7 °F /  1.5 °C
Humidity: 92% 37% 66%
Wind Speed: 6.9mph /  11.1km/h - 1.2mph /  1.9km/h
Wind Gust: 14mph /  22.5km/h - -
Wind- - ESE
Pressure: 30.2 in /  1024.0 hPa 30.1 in /  1020.7 hPa -
Precipitation: 0 in /  0.0 mm    
Historical Graphs
 
 
Tabular Data for June 4, 2020
Time Temperature Dew Point Pressure Wind Wind Speed Wind Gust Humidity Rainfall Rate (Hourly) solar
00:02 40.3 °F /  4.6 °C 33.6 °F /  0.9 °C 30.1in /  1020.7hPa Calm     77% 0in /  0.0mm 0 W/m2
00:07 40.1 °F /  4.5 °C 33.8 °F /  1 °C 30.1in /  1020.7hPa Calm     78% 0in /  0.0mm 0 W/m2
00:12 39.9 °F /  4.4 °C 34 °F /  1.1 °C 30.1in /  1020.7hPa Calm     79% 0in /  0.0mm 0 W/m2
00:17 39.7 °F /  4.3 °C 33.8 °F /  1 °C 30.1in /  1020.7hPa Calm     79% 0in /  0.0mm 0 W/m2
00:22 39.6 °F /  4.2 °C 33.6 °F /  0.9 °C 30.1in /  1020.7hPa Calm     79% 0in /  0.0mm 0 W/m2
00:27 39.4 °F /  4.1 °C 33.8 °F /  1 °C 30.1in /  1020.7hPa Calm     80% 0in /  0.0mm 0 W/m2
00:32 39.2 °F /  4 °C 33.6 °F /  0.9 °C 30.1in /  1020.7hPa Calm     80% 0in /  0.0mm 0 W/m2
00:37 39 °F /  3.9 °C 33.4 °F /  0.8 °C 30.1in /  1020.7hPa Calm     80% 0in /  0.0mm 0 W/m2
00:42 38.8 °F /  3.8 °C 33.3 °F /  0.7 °C 30.1in /  1020.7hPa Calm     80% 0in /  0.0mm 0 W/m2
00:47 38.8 °F /  3.8 °C 33.4 °F /  0.8 °C 30.1in /  1020.7hPa Calm     81% 0in /  0.0mm 0 W/m2
00:52 38.7 °F /  3.7 °C 33.3 °F /  0.7 °C 30.1in /  1020.7hPa Calm     81% 0in /  0.0mm 0 W/m2
00:57 38.5 °F /  3.6 °C 33.1 °F /  0.6 °C 30.1in /  1020.7hPa Calm     81% 0in /  0.0mm 0 W/m2
01:02 38.3 °F /  3.5 °C 32.9 °F /  0.5 °C 30.1in /  1020.7hPa Calm     81% 0in /  0.0mm 0 W/m2
01:07 38.1 °F /  3.4 °C 33.1 °F /  0.6 °C 30.1in /  1020.7hPa Calm     82% 0in /  0.0mm 0 W/m2
01:12 37.8 °F /  3.2 °C 32.7 °F /  0.4 °C 30.1in /  1020.7hPa Calm     82% 0in /  0.0mm 0 W/m2
01:17 37.8 °F /  3.2 °C 32.7 °F /  0.4 °C 30.1in /  1020.7hPa Calm     82% 0in /  0.0mm 0 W/m2
01:23 37.6 °F /  3.1 °C 32.9 °F /  0.5 °C 30.1in /  1020.7hPa Calm     83% 0in /  0.0mm 0 W/m2
01:28 37.2 °F /  2.9 °C 32.9 °F /  0.5 °C 30.1in /  1020.7hPa Calm     84% 0in /  0.0mm 0 W/m2
01:33 37.2 °F /  2.9 °C 32.9 °F /  0.5 °C 30.1in /  1020.7hPa Calm   1mph /  1.6km/h 84% 0in /  0.0mm 0 W/m2
01:38 37.2 °F /  2.9 °C 32.9 °F /  0.5 °C 30.2in /  1021.0hPa Calm     84% 0in /  0.0mm 0 W/m2
01:43 37.2 °F /  2.9 °C 32.9 °F /  0.5 °C 30.2in /  1021.0hPa Calm     84% 0in /  0.0mm 0 W/m2
01:48 37 °F /  2.8 °C 32.4 °F /  0.2 °C 30.2in /  1021.0hPa Calm     83% 0in /  0.0mm 0 W/m2
01:53 36.9 °F /  2.7 °C 32.2 °F /  0.1 °C 30.2in /  1021.0hPa Calm     83% 0in /  0.0mm 0 W/m2
01:58 36.7 °F /  2.6 °C 32.4 °F /  0.2 °C 30.2in /  1021.0hPa Calm     84% 0in /  0.0mm 0 W/m2
02:03 36.7 °F /  2.6 °C 32.4 °F /  0.2 °C 30.2in /  1021.0hPa Calm   1mph /  1.6km/h 84% 0in /  0.0mm 0 W/m2
02:08 36.5 °F /  2.5 °C 32.4 °F /  0.2 °C 30.2in /  1021.0hPa Calm     85% 0in /  0.0mm 0 W/m2
02:13 36.1 °F /  2.3 °C 32 °F /  0 °C 30.2in /  1021.0hPa Calm     85% 0in /  0.0mm 0 W/m2
02:18 36.1 °F /  2.3 °C 32 °F /  0 °C 30.2in /  1021.0hPa Calm     85% 0in /  0.0mm 0 W/m2
02:23 36 °F /  2.2 °C 31.8 °F /  -0.1 °C 30.2in /  1021.0hPa Calm     85% 0in /  0.0mm 0 W/m2
02:28 35.8 °F /  2.1 °C 31.6 °F /  -0.2 °C 30.2in /  1021.0hPa Calm     85% 0in /  0.0mm 0 W/m2
02:33 35.6 °F /  2 °C 31.8 °F /  -0.1 °C 30.2in /  1021.0hPa Calm     86% 0in /  0.0mm 0 W/m2
02:38 35.4 °F /  1.9 °C 31.6 °F /  -0.2 °C 30.2in /  1021.0hPa Calm     86% 0in /  0.0mm 0 W/m2
02:43 35.2 °F /  1.8 °C 31.5 °F /  -0.3 °C 30.2in /  1021.0hPa Calm     86% 0in /  0.0mm 0 W/m2
02:48 35.1 °F /  1.7 °C 31.3 °F /  -0.4 °C 30.2in /  1021.0hPa Calm     86% 0in /  0.0mm 0 W/m2
02:53 35.1 °F /  1.7 °C 31.6 °F /  -0.2 °C 30.2in /  1021.0hPa Calm     87% 0in /  0.0mm 0 W/m2
02:58 34.9 °F /  1.6 °C 31.5 °F /  -0.3 °C 30.2in /  1021.0hPa Calm     87% 0in /  0.0mm 0 W/m2
03:03 34.9 °F /  1.6 °C 31.5 °F /  -0.3 °C 30.2in /  1021.0hPa Calm     87% 0in /  0.0mm 0 W/m2
03:08 34.9 °F /  1.6 °C 31.5 °F /  -0.3 °C 30.2in /  1021.0hPa Calm     87% 0in /  0.0mm 0 W/m2
03:13 34.7 °F /  1.5 °C 31.3 °F /  -0.4 °C 30.2in /  1021.0hPa Calm     87% 0in /  0.0mm 0 W/m2
03:18 34.7 °F /  1.5 °C 31.5 °F /  -0.3 °C 30.2in /  1021.0hPa Calm   1mph /  1.6km/h 88% 0in /  0.0mm 0 W/m2
03:23 34.7 °F /  1.5 °C 31.5 °F /  -0.3 °C 30.2in /  1021.0hPa Calm     88% 0in /  0.0mm 0 W/m2
03:28 34.5 °F /  1.4 °C 31.3 °F /  -0.4 °C 30.2in /  1021.0hPa Calm   1mph /  1.6km/h 88% 0in /  0.0mm 0 W/m2
03:33 34.5 °F /  1.4 °C 31.3 °F /  -0.4 °C 30.2in /  1021.0hPa Calm     88% 0in /  0.0mm 0 W/m2
03:38 34.3 °F /  1.3 °C 31.1 °F /  -0.5 °C 30.2in /  1021.0hPa Calm   1mph /  1.6km/h 88% 0in /  0.0mm 0 W/m2
03:43 34.3 °F /  1.3 °C 31.1 °F /  -0.5 °C 30.2in /  1021.3hPa Calm     88% 0in /  0.0mm 0 W/m2
03:48 34.3 °F /  1.3 °C 31.1 °F /  -0.5 °C 30.2in /  1021.3hPa Calm   1mph /  1.6km/h 88% 0in /  0.0mm 0 W/m2
03:53 34.3 °F /  1.3 °C 31.5 °F /  -0.3 °C 30.2in /  1021.3hPa Calm   1mph /  1.6km/h 89% 0in /  0.0mm 0 W/m2
03:58 34.3 °F /  1.3 °C 31.5 °F /  -0.3 °C 30.2in /  1021.3hPa Calm   1mph /  1.6km/h 89% 0in /  0.0mm 0 W/m2
04:03 34.5 °F /  1.4 °C 31.6 °F /  -0.2 °C 30.2in /  1021.3hPa Calm   1mph /  1.6km/h 89% 0in /  0.0mm 0 W/m2
04:08 34.7 °F /  1.5 °C 31.8 °F /  -0.1 °C 30.2in /  1021.3hPa Calm     89% 0in /  0.0mm 0 W/m2
04:13 35.1 °F /  1.7 °C 32.4 °F /  0.2 °C 30.2in /  1021.3hPa Calm   1mph /  1.6km/h 90% 0in /  0.0mm 0 W/m2
04:18 35.2 °F /  1.8 °C 32.5 °F /  0.3 °C 30.2in /  1021.3hPa Calm     90% 0in /  0.0mm 0 W/m2
04:23 35.4 °F /  1.9 °C 32.7 °F /  0.4 °C 30.2in /  1021.3hPa South 0.9mph /  1.4km/h 1mph /  1.6km/h 90% 0in /  0.0mm 0 W/m2
04:28 35.6 °F /  2 °C 32.7 °F /  0.4 °C 30.2in /  1021.3hPa Calm     89% 0in /  0.0mm 0 W/m2
04:33 35.8 °F /  2.1 °C 32.9 °F /  0.5 °C 30.2in /  1021.3hPa NW 0.9mph /  1.4km/h 2mph /  3.2km/h 89% 0in /  0.0mm 0 W/m2
04:38 35.8 °F /  2.1 °C 32.9 °F /  0.5 °C 30.2in /  1021.3hPa Calm     89% 0in /  0.0mm 0 W/m2
04:43 36 °F /  2.2 °C 33.1 °F /  0.6 °C 30.2in /  1021.3hPa NW 0.9mph /  1.4km/h 1mph /  1.6km/h 89% 0in /  0.0mm 0 W/m2
04:48 36 °F /  2.2 °C 33.1 °F /  0.6 °C 30.2in /  1021.3hPa Calm     89% 0in /  0.0mm 0 W/m2
04:53 36 °F /  2.2 °C 32.7 °F /  0.4 °C 30.2in /  1021.3hPa NW 0.9mph /  1.4km/h 1mph /  1.6km/h 88% 0in /  0.0mm 0 W/m2
04:58 35.8 °F /  2.1 °C 32.5 °F /  0.3 °C 30.2in /  1021.3hPa Calm     88% 0in /  0.0mm 0 W/m2
05:03 35.8 °F /  2.1 °C 32.5 °F /  0.3 °C 30.2in /  1021.3hPa Calm     88% 0in /  0.0mm 0 W/m2
05:08 35.8 °F /  2.1 °C 32.5 °F /  0.3 °C 30.2in /  1021.7hPa Calm     88% 0in /  0.0mm 0 W/m2
05:13 35.6 °F /  2 °C 32.4 °F /  0.2 °C 30.2in /  1021.7hPa Calm     88% 0in /  0.0mm 0 W/m2
05:18 35.4 °F /  1.9 °C 32.2 °F /  0.1 °C 30.2in /  1021.7hPa Calm     88% 0in /  0.0mm 0 W/m2
05:23 35.4 °F /  1.9 °C 32.2 °F /  0.1 °C 30.2in /  1021.7hPa Calm   1mph /  1.6km/h 88% 0in /  0.0mm 0 W/m2
05:29 35.2 °F /  1.8 °C 32 °F /  0 °C 30.2in /  1021.7hPa Calm     88% 0in /  0.0mm 0 W/m2
05:34 35.1 °F /  1.7 °C 31.8 °F /  -0.1 °C 30.2in /  1021.3hPa Calm     88% 0in /  0.0mm 0 W/m2
05:39 35.1 °F /  1.7 °C 31.8 °F /  -0.1 °C 30.2in /  1021.7hPa Calm     88% 0in /  0.0mm 0 W/m2
05:44 34.9 °F /  1.6 °C 31.6 °F /  -0.2 °C 30.2in /  1021.7hPa Calm     88% 0in /  0.0mm 0 W/m2
05:49 34.7 °F /  1.5 °C 31.8 °F /  -0.1 °C 30.2in /  1021.7hPa Calm     89% 0in /  0.0mm 0 W/m2
05:54 34.5 °F /  1.4 °C 31.6 °F /  -0.2 °C 30.2in /  1021.7hPa Calm     89% 0in /  0.0mm 0 W/m2
05:59 34.5 °F /  1.4 °C 31.6 °F /  -0.2 °C 30.2in /  1021.7hPa Calm     89% 0in /  0.0mm 0 W/m2
06:04 34.3 °F /  1.3 °C 31.5 °F /  -0.3 °C 30.2in /  1021.7hPa Calm     89% 0in /  0.0mm 0 W/m2
06:09 34.2 °F /  1.2 °C 31.3 °F /  -0.4 °C 30.2in /  1022.0hPa Calm     89% 0in /  0.0mm 0 W/m2
06:14 34.2 °F /  1.2 °C 31.3 °F /  -0.4 °C 30.2in /  1022.0hPa Calm     89% 0in /  0.0mm 0 W/m2
06:19 34 °F /  1.1 °C 31.1 °F /  -0.5 °C 30.2in /  1022.0hPa Calm     89% 0in /  0.0mm 0 W/m2
06:24 34 °F /  1.1 °C 31.1 °F /  -0.5 °C 30.2in /  1022.0hPa Calm     89% 0in /  0.0mm 0 W/m2
06:29 33.8 °F /  1 °C 30.9 °F /  -0.6 °C 30.2in /  1022.0hPa Calm     89% 0in /  0.0mm 0 W/m2
06:34 33.6 °F /  0.9 °C 30.7 °F /  -0.7 °C 30.2in /  1022.0hPa Calm     89% 0in /  0.0mm 0 W/m2
06:39 33.4 °F /  0.8 °C 30.6 °F /  -0.8 °C 30.2in /  1022.0hPa Calm     89% 0in /  0.0mm 0 W/m2
06:44 33.4 °F /  0.8 °C 30.6 °F /  -0.8 °C 30.2in /  1022.0hPa Calm     89% 0in /  0.0mm 0 W/m2
06:49 33.3 °F /  0.7 °C 30.4 °F /  -0.9 °C 30.2in /  1022.4hPa Calm     89% 0in /  0.0mm 0 W/m2
06:54 33.3 °F /  0.7 °C 30.6 °F /  -0.8 °C 30.2in /  1022.4hPa Calm     90% 0in /  0.0mm 0 W/m2
06:59 33.3 °F /  0.7 °C 30.6 °F /  -0.8 °C 30.2in /  1022.4hPa Calm     90% 0in /  0.0mm 0 W/m2
07:04 33.1 °F /  0.6 °C 30.2 °F /  -1 °C 30.2in /  1022.4hPa Calm     89% 0in /  0.0mm 5 W/m2
07:09 33.1 °F /  0.6 °C 30.4 °F /  -0.9 °C 30.2in /  1022.4hPa Calm     90% 0in /  0.0mm 7 W/m2
07:14 33.1 °F /  0.6 °C 30.4 °F /  -0.9 °C 30.2in /  1022.4hPa Calm     90% 0in /  0.0mm 11 W/m2
07:20 33.1 °F /  0.6 °C 30.7 °F /  -0.7 °C 30.2in /  1022.7hPa Calm     91% 0in /  0.0mm 12 W/m2
07:25 33.3 °F /  0.7 °C 30.6 °F /  -0.8 °C 30.2in /  1022.7hPa Calm     90% 0in /  0.0mm 16 W/m2
07:30 33.3 °F /  0.7 °C 30.9 °F /  -0.6 °C 30.2in /  1022.7hPa Calm     91% 0in /  0.0mm 19 W/m2
07:35 33.4 °F /  0.8 °C 31.1 °F /  -0.5 °C 30.2in /  1022.7hPa Calm     91% 0in /  0.0mm 21 W/m2
07:40 33.6 °F /  0.9 °C 31.3 °F /  -0.4 °C 30.2in /  1022.7hPa Calm     91% 0in /  0.0mm 23 W/m2
07:45 34 °F /  1.1 °C 31.6 °F /  -0.2 °C 30.2in /  1022.7hPa Calm     91% 0in /  0.0mm 26 W/m2
07:50 34.2 °F /  1.2 °C 31.8 °F /  -0.1 °C 30.2in /  1022.7hPa Calm     91% 0in /  0.0mm 32 W/m2
07:55 34.3 °F /  1.3 °C 32.2 °F /  0.1 °C 30.2in /  1022.7hPa Calm     92% 0in /  0.0mm 33 W/m2
08:00 34.5 °F /  1.4 °C 32.2 °F /  0.1 °C 30.2in /  1023.0hPa Calm     91% 0in /  0.0mm 40 W/m2
08:05 34.9 °F /  1.6 °C 32.7 °F /  0.4 °C 30.2in /  1023.0hPa Calm     92% 0in /  0.0mm 42 W/m2
08:10 35.1 °F /  1.7 °C 32.7 °F /  0.4 °C 30.2in /  1023.0hPa Calm     91% 0in /  0.0mm 46 W/m2
08:15 35.2 °F /  1.8 °C 32.9 °F /  0.5 °C 30.2in /  1023.0hPa Calm     91% 0in /  0.0mm 134 W/m2
08:20 35.4 °F /  1.9 °C 33.1 °F /  0.6 °C 30.2in /  1023.0hPa Calm     91% 0in /  0.0mm 149 W/m2
08:25 35.8 °F /  2.1 °C 33.4 °F /  0.8 °C 30.2in /  1023.0hPa Calm     91% 0in /  0.0mm 163 W/m2
08:30 36.3 °F /  2.4 °C 34 °F /  1.1 °C 30.2in /  1023.0hPa NE 2mph /  3.2km/h 2mph /  3.2km/h 91% 0in /  0.0mm 174 W/m2
08:35 37 °F /  2.8 °C 34.2 °F /  1.2 °C 30.2in /  1023.4hPa NE 0.9mph /  1.4km/h 1mph /  1.6km/h 89% 0in /  0.0mm 183 W/m2
08:40 37.6 °F /  3.1 °C 34.3 °F /  1.3 °C 30.2in /  1023.4hPa Calm   2mph /  3.2km/h 88% 0in /  0.0mm 188 W/m2
08:45 37.9 °F /  3.3 °C 34.3 °F /  1.3 °C 30.2in /  1023.4hPa NE 0.9mph /  1.4km/h 1mph /  1.6km/h 87% 0in /  0.0mm 200 W/m2
08:50 38.5 °F /  3.6 °C 34.7 °F /  1.5 °C 30.2in /  1023.4hPa East 2mph /  3.2km/h 2mph /  3.2km/h 86% 0in /  0.0mm 197 W/m2
08:55 38.8 °F /  3.8 °C 34.3 °F /  1.3 °C 30.2in /  1023.4hPa East 2mph /  3.2km/h 2mph /  3.2km/h 84% 0in /  0.0mm 232 W/m2
09:00 39.4 °F /  4.1 °C 34.9 °F /  1.6 °C 30.2in /  1023.4hPa East 2mph /  3.2km/h 2mph /  3.2km/h 84% 0in /  0.0mm 246 W/m2
09:05 39.7 °F /  4.3 °C 34.7 °F /  1.5 °C 30.2in /  1023.4hPa East 2mph /  3.2km/h 2mph /  3.2km/h 82% 0in /  0.0mm 265 W/m2
09:10 40.3 °F /  4.6 °C 34.9 °F /  1.6 °C 30.2in /  1023.4hPa ENE 0.9mph /  1.4km/h 3mph /  4.8km/h 81% 0in /  0.0mm 283 W/m2
09:15 40.6 °F /  4.8 °C 34.9 °F /  1.6 °C 30.2in /  1023.7hPa East 2mph /  3.2km/h 3mph /  4.8km/h 80% 0in /  0.0mm 306 W/m2
09:20 41.2 °F /  5.1 °C 35.2 °F /  1.8 °C 30.2in /  1023.4hPa Calm   1mph /  1.6km/h 79% 0in /  0.0mm 315 W/m2
09:25 41.4 °F /  5.2 °C 35.1 °F /  1.7 °C 30.2in /  1023.4hPa Calm   1mph /  1.6km/h 78% 0in /  0.0mm 332 W/m2
09:30 42.1 °F /  5.6 °C 35.1 °F /  1.7 °C 30.2in /  1023.4hPa NNE 0.9mph /  1.4km/h 2mph /  3.2km/h 76% 0in /  0.0mm 294 W/m2
09:35 42.4 °F /  5.8 °C 35.1 °F /  1.7 °C 30.2in /  1023.4hPa East 2mph /  3.2km/h 3mph /  4.8km/h 75% 0in /  0.0mm 113 W/m2
09:40 43.3 °F /  6.3 °C 35.6 °F /  2 °C 30.2in /  1023.4hPa East 2.9mph /  4.7km/h 4mph /  6.4km/h 74% 0in /  0.0mm 295 W/m2
09:45 44.2 °F /  6.8 °C 35.8 °F /  2.1 °C 30.2in /  1023.7hPa East 4.9mph /  7.9km/h 5mph /  8km/h 72% 0in /  0.0mm 381 W/m2
09:50 44.8 °F /  7.1 °C 35.2 °F /  1.8 °C 30.2in /  1023.7hPa East 4mph /  6.4km/h 5mph /  8km/h 69% 0in /  0.0mm 394 W/m2
09:55 45.3 °F /  7.4 °C 35.1 °F /  1.7 °C 30.2in /  1023.7hPa NE 2.9mph /  4.7km/h 7mph /  11.3km/h 67% 0in /  0.0mm 529 W/m2
10:00 45.7 °F /  7.6 °C 35.1 °F /  1.7 °C 30.2in /  1023.7hPa East 2mph /  3.2km/h 3mph /  4.8km/h 66% 0in /  0.0mm 559 W/m2
10:05 46.4 °F /  8 °C 35.2 °F /  1.8 °C 30.2in /  1023.7hPa NNE 2.9mph /  4.7km/h 4mph /  6.4km/h 65% 0in /  0.0mm 527 W/m2
10:10 46.8 °F /  8.2 °C 35.6 °F /  2 °C 30.2in /  1023.7hPa ENE 2.9mph /  4.7km/h 4mph /  6.4km/h 65% 0in /  0.0mm 573 W/m2
10:15 46.9 °F /  8.3 °C 35.4 °F /  1.9 °C 30.2in /  1023.7hPa Calm   3mph /  4.8km/h 64% 0in /  0.0mm 545 W/m2
10:20 47.5 °F /  8.6 °C 35.6 °F /  2 °C 30.2in /  1023.7hPa Calm   4mph /  6.4km/h 63% 0in /  0.0mm 547 W/m2
10:25 48 °F /  8.9 °C 35.6 °F /  2 °C 30.2in /  1024.0hPa ESE 2.9mph /  4.7km/h 4mph /  6.4km/h 62% 0in /  0.0mm 533 W/m2
10:30 48.4 °F /  9.1 °C 35.6 °F /  2 °C 30.2in /  1024.0hPa ESE 2.9mph /  4.7km/h 5mph /  8km/h 61% 0in /  0.0mm 281 W/m2
10:35 48.4 °F /  9.1 °C 35.6 °F /  2 °C 30.2in /  1024.0hPa ESE 0.9mph /  1.4km/h 7mph /  11.3km/h 61% 0in /  0.0mm 211 W/m2
10:40 48.6 °F /  9.2 °C 35.8 °F /  2.1 °C 30.2in /  1024.0hPa ENE 0.9mph /  1.4km/h 3mph /  4.8km/h 61% 0in /  0.0mm 543 W/m2
10:45 48.7 °F /  9.3 °C 36 °F /  2.2 °C 30.2in /  1024.0hPa ENE 4mph /  6.4km/h 4mph /  6.4km/h 61% 0in /  0.0mm 522 W/m2
10:50 48.9 °F /  9.4 °C 35.6 °F /  2 °C 30.2in /  1024.0hPa NE 0.9mph /  1.4km/h 3mph /  4.8km/h 60% 0in /  0.0mm 520 W/m2
10:55 49.5 °F /  9.7 °C 36.5 °F /  2.5 °C 30.2in /  1024.0hPa ENE 2mph /  3.2km/h 4mph /  6.4km/h 61% 0in /  0.0mm 538 W/m2
11:00 49.6 °F /  9.8 °C 36.3 °F /  2.4 °C 30.2in /  1024.0hPa ENE 2mph /  3.2km/h 4mph /  6.4km/h 60% 0in /  0.0mm 548 W/m2
11:05 50.2 °F /  10.1 °C 36.9 °F /  2.7 °C 30.2in /  1024.0hPa SE 2.9mph /  4.7km/h 3mph /  4.8km/h 60% 0in /  0.0mm 545 W/m2
11:10 50.7 °F /  10.4 °C 36.9 °F /  2.7 °C 30.2in /  1024.0hPa East 2mph /  3.2km/h 3mph /  4.8km/h 59% 0in /  0.0mm 545 W/m2
11:15 51.3 °F /  10.7 °C 37 °F /  2.8 °C 30.2in /  1024.0hPa East 2mph /  3.2km/h 4mph /  6.4km/h 58% 0in /  0.0mm 554 W/m2
11:20 51.4 °F /  10.8 °C 37.2 °F /  2.9 °C 30.2in /  1024.0hPa East 2.9mph /  4.7km/h 5mph /  8km/h 58% 0in /  0.0mm 555 W/m2
11:25 51.6 °F /  10.9 °C 36.9 °F /  2.7 °C 30.2in /  1024.0hPa East 2.9mph /  4.7km/h 3mph /  4.8km/h 57% 0in /  0.0mm 564 W/m2
11:30 52 °F /  11.1 °C 36.9 °F /  2.7 °C 30.2in /  1024.0hPa ENE 2mph /  3.2km/h 4mph /  6.4km/h 56% 0in /  0.0mm 573 W/m2
11:36 52.5 °F /  11.4 °C 37.2 °F /  2.9 °C 30.2in /  1023.7hPa ENE 4.9mph /  7.9km/h 6mph /  9.7km/h 56% 0in /  0.0mm 580 W/m2
11:41 52.3 °F /  11.3 °C 36.1 °F /  2.3 °C 30.2in /  1024.0hPa Calm   4mph /  6.4km/h 54% 0in /  0.0mm 592 W/m2
11:46 52.5 °F /  11.4 °C 36.9 °F /  2.7 °C 30.2in /  1023.7hPa ESE 0.9mph /  1.4km/h 4mph /  6.4km/h 55% 0in /  0.0mm 596 W/m2
11:51 52.9 °F /  11.6 °C 36.7 °F /  2.6 °C 30.2in /  1023.7hPa ESE 6.9mph /  11.1km/h 9mph /  14.5km/h 54% 0in /  0.0mm 605 W/m2
11:56 53.4 °F /  11.9 °C 36.7 °F /  2.6 °C 30.2in /  1023.7hPa ESE 6.9mph /  11.1km/h 7mph /  11.3km/h 53% 0in /  0.0mm 612 W/m2
12:01 53.6 °F /  12 °C 36.3 °F /  2.4 °C 30.2in /  1023.7hPa NE 2.9mph /  4.7km/h 9mph /  14.5km/h 52% 0in /  0.0mm 617 W/m2
12:06 53.8 °F /  12.1 °C 36.5 °F /  2.5 °C 30.2in /  1023.7hPa ESE 2.9mph /  4.7km/h 7mph /  11.3km/h 52% 0in /  0.0mm 626 W/m2
12:11 53.8 °F /  12.1 °C 37 °F /  2.8 °C 30.2in /  1023.7hPa East 4mph /  6.4km/h 5mph /  8km/h 53% 0in /  0.0mm 631 W/m2
12:16 53.4 °F /  11.9 °C 36.3 °F /  2.4 °C 30.2in /  1023.7hPa North 0.9mph /  1.4km/h 4mph /  6.4km/h 52% 0in /  0.0mm 638 W/m2
12:21 53.8 °F /  12.1 °C 37 °F /  2.8 °C 30.2in /  1023.7hPa SE 2mph /  3.2km/h 4mph /  6.4km/h 53% 0in /  0.0mm 640 W/m2
12:26 54.1 °F /  12.3 °C 36.9 °F /  2.7 °C 30.2in /  1023.7hPa East 2.9mph /  4.7km/h 4mph /  6.4km/h 52% 0in /  0.0mm 645 W/m2
12:31 54.9 °F /  12.7 °C 37 °F /  2.8 °C 30.2in /  1023.7hPa ENE 0.9mph /  1.4km/h 4mph /  6.4km/h 51% 0in /  0.0mm 652 W/m2
12:36 55.2 °F /  12.9 °C 36.9 °F /  2.7 °C 30.2in /  1023.4hPa East 0.9mph /  1.4km/h 2mph /  3.2km/h 50% 0in /  0.0mm 656 W/m2
12:41 55.4 °F /  13 °C 37 °F /  2.8 °C 30.2in /  1023.4hPa East 4mph /  6.4km/h 8mph /  12.9km/h 50% 0in /  0.0mm 659 W/m2
12:46 55 °F /  12.8 °C 36.7 °F /  2.6 °C 30.2in /  1023.4hPa East 2mph /  3.2km/h 4mph /  6.4km/h 50% 0in /  0.0mm 661 W/m2
12:51 55 °F /  12.8 °C 36.7 °F /  2.6 °C 30.2in /  1023.4hPa SE 0.9mph /  1.4km/h 11mph /  17.7km/h 50% 0in /  0.0mm 664 W/m2
12:56 55.2 °F /  12.9 °C 36.9 °F /  2.7 °C 30.2in /  1023.4hPa ESE 2mph /  3.2km/h 3mph /  4.8km/h 50% 0in /  0.0mm 673 W/m2
13:01 55.8 °F /  13.2 °C 37.4 °F /  3 °C 30.2in /  1023.4hPa East 2mph /  3.2km/h 11mph /  17.7km/h 50% 0in /  0.0mm 666 W/m2
13:06 56.1 °F /  13.4 °C 37.2 °F /  2.9 °C 30.2in /  1023.4hPa NNW 2.9mph /  4.7km/h 3mph /  4.8km/h 49% 0in /  0.0mm 673 W/m2
13:11 55.8 °F /  13.2 °C 35.8 °F /  2.1 °C 30.2in /  1023.0hPa NNE 2mph /  3.2km/h 8mph /  12.9km/h 47% 0in /  0.0mm 666 W/m2
13:16 55.6 °F /  13.1 °C 36.1 °F /  2.3 °C 30.2in /  1023.0hPa Calm   5mph /  8km/h 48% 0in /  0.0mm 675 W/m2
13:21 55.9 °F /  13.3 °C 37.6 °F /  3.1 °C 30.2in /  1023.0hPa East 6.9mph /  11.1km/h 8mph /  12.9km/h 50% 0in /  0.0mm 677 W/m2
13:26 55.9 °F /  13.3 °C 36.5 °F /  2.5 °C 30.2in /  1023.0hPa NNE 0.9mph /  1.4km/h 8mph /  12.9km/h 48% 0in /  0.0mm 680 W/m2
13:32 55.9 °F /  13.3 °C 36 °F /  2.2 °C 30.2in /  1023.0hPa East 4mph /  6.4km/h 5mph /  8km/h 47% 0in /  0.0mm 670 W/m2
13:37 55.9 °F /  13.3 °C 36.5 °F /  2.5 °C 30.2in /  1023.0hPa West 2.9mph /  4.7km/h 6mph /  9.7km/h 48% 0in /  0.0mm 673 W/m2
13:42 55.9 °F /  13.3 °C 36.5 °F /  2.5 °C 30.2in /  1023.0hPa East 2mph /  3.2km/h 4mph /  6.4km/h 48% 0in /  0.0mm 675 W/m2
13:47 55.9 °F /  13.3 °C 37 °F /  2.8 °C 30.2in /  1023.0hPa ENE 2mph /  3.2km/h 7mph /  11.3km/h 49% 0in /  0.0mm 615 W/m2
13:52 56.5 °F /  13.6 °C 38.1 °F /  3.4 °C 30.2in /  1022.7hPa NNW 2mph /  3.2km/h 2mph /  3.2km/h 50% 0in /  0.0mm 677 W/m2
13:57 56.7 °F /  13.7 °C 37.2 °F /  2.9 °C 30.2in /  1022.7hPa ENE 0.9mph /  1.4km/h 6mph /  9.7km/h 48% 0in /  0.0mm 679 W/m2
14:02 56.8 °F /  13.8 °C 36.9 °F /  2.7 °C 30.2in /  1022.7hPa NE 4.9mph /  7.9km/h 12mph /  19.3km/h 47% 0in /  0.0mm 675 W/m2
14:07 56.3 °F /  13.5 °C 36.3 °F /  2.4 °C 30.2in /  1022.7hPa North 2mph /  3.2km/h 3mph /  4.8km/h 47% 0in /  0.0mm 673 W/m2
14:12 56.1 °F /  13.4 °C 36.7 °F /  2.6 °C 30.2in /  1022.7hPa West 0.9mph /  1.4km/h 2mph /  3.2km/h 48% 0in /  0.0mm 670 W/m2
14:17 56.5 °F /  13.6 °C 37 °F /  2.8 °C 30.2in /  1022.7hPa Calm   3mph /  4.8km/h 48% 0in /  0.0mm 666 W/m2
14:22 56.7 °F /  13.7 °C 36.7 °F /  2.6 °C 30.2in /  1022.7hPa NNW 0.9mph /  1.4km/h 4mph /  6.4km/h 47% 0in /  0.0mm 666 W/m2
14:27 56.5 °F /  13.6 °C 37 °F /  2.8 °C 30.2in /  1022.4hPa NW 2mph /  3.2km/h 3mph /  4.8km/h 48% 0in /  0.0mm 663 W/m2
14:32 56.5 °F /  13.6 °C 36.5 °F /  2.5 °C 30.2in /  1022.7hPa ESE 2mph /  3.2km/h 10mph /  16.1km/h 47% 0in /  0.0mm 654 W/m2
14:37 56.5 °F /  13.6 °C 37 °F /  2.8 °C 30.2in /  1022.7hPa NNW 2mph /  3.2km/h 3mph /  4.8km/h 48% 0in /  0.0mm 659 W/m2
14:42 56.7 °F /  13.7 °C 37.8 °F /  3.2 °C 30.2in /  1022.4hPa WNW 0.9mph /  1.4km/h 2mph /  3.2km/h 49% 0in /  0.0mm 650 W/m2
14:47 57 °F /  13.9 °C 37.6 °F /  3.1 °C 30.2in /  1022.4hPa NE 4mph /  6.4km/h 14mph /  22.5km/h 48% 0in /  0.0mm 636 W/m2
14:52 57.2 °F /  14 °C 37.2 °F /  2.9 °C 30.2in /  1022.4hPa East 2mph /  3.2km/h 6mph /  9.7km/h 47% 0in /  0.0mm 642 W/m2
14:57 57.6 °F /  14.2 °C 37.4 °F /  3 °C 30.2in /  1022.4hPa East 4mph /  6.4km/h 14mph /  22.5km/h 47% 0in /  0.0mm 631 W/m2
15:02 57.7 °F /  14.3 °C 37 °F /  2.8 °C 30.2in /  1022.4hPa NNW 2.9mph /  4.7km/h 4mph /  6.4km/h 46% 0in /  0.0mm 628 W/m2
15:08 58.1 °F /  14.5 °C 37.9 °F /  3.3 °C 30.2in /  1022.4hPa East 2.9mph /  4.7km/h 9mph /  14.5km/h 47% 0in /  0.0mm 626 W/m2
15:13 58.1 °F /  14.5 °C 37.4 °F /  3 °C 30.2in /  1022.4hPa East 4mph /  6.4km/h 6mph /  9.7km/h 46% 0in /  0.0mm 613 W/m2
15:18 58.5 °F /  14.7 °C 37.8 °F /  3.2 °C 30.2in /  1022.4hPa East 2.9mph /  4.7km/h 3mph /  4.8km/h 46% 0in /  0.0mm 592 W/m2
15:23 58.5 °F /  14.7 °C 36.7 °F /  2.6 °C 30.2in /  1022.0hPa NNE 2mph /  3.2km/h 5mph /  8km/h 44% 0in /  0.0mm 601 W/m2
15:28 58.5 °F /  14.7 °C 37.8 °F /  3.2 °C 30.2in /  1022.0hPa ENE 0.9mph /  1.4km/h 5mph /  8km/h 46% 0in /  0.0mm 599 W/m2
15:33 58.6 °F /  14.8 °C 37.4 °F /  3 °C 30.2in /  1022.0hPa ENE 2mph /  3.2km/h 3mph /  4.8km/h 45% 0in /  0.0mm 578 W/m2
15:38 59 °F /  15 °C 37.8 °F /  3.2 °C 30.2in /  1021.7hPa ENE 2mph /  3.2km/h 9mph /  14.5km/h 45% 0in /  0.0mm 568 W/m2
15:43 59.2 °F /  15.1 °C 37.9 °F /  3.3 °C 30.2in /  1021.7hPa East 2.9mph /  4.7km/h 7mph /  11.3km/h 45% 0in /  0.0mm 575 W/m2
15:48 59.4 °F /  15.2 °C 37.4 °F /  3 °C 30.2in /  1021.7hPa ENE 4mph /  6.4km/h 4mph /  6.4km/h 44% 0in /  0.0mm 577 W/m2
15:53 59.5 °F /  15.3 °C 37 °F /  2.8 °C 30.2in /  1021.7hPa ESE 4mph /  6.4km/h 6mph /  9.7km/h 43% 0in /  0.0mm 566 W/m2
15:58 59.7 °F /  15.4 °C 37.2 °F /  2.9 °C 30.2in /  1021.7hPa East 4mph /  6.4km/h 5mph /  8km/h 43% 0in /  0.0mm 557 W/m2
16:03 59.7 °F /  15.4 °C 36.5 °F /  2.5 °C 30.2in /  1021.7hPa ENE 2.9mph /  4.7km/h 3mph /  4.8km/h 42% 0in /  0.0mm 550 W/m2
16:08 60.1 °F /  15.6 °C 36.3 °F /  2.4 °C 30.2in /  1021.7hPa East 2.9mph /  4.7km/h 8mph /  12.9km/h 41% 0in /  0.0mm 538 W/m2
16:13 60.1 °F /  15.6 °C 36.9 °F /  2.7 °C 30.2in /  1021.3hPa ESE 4mph /  6.4km/h 4mph /  6.4km/h 42% 0in /  0.0mm 526 W/m2
16:18 60.3 °F /  15.7 °C 37 °F /  2.8 °C 30.2in /  1021.3hPa East 2.9mph /  4.7km/h 9mph /  14.5km/h 42% 0in /  0.0mm 517 W/m2
16:23 60.3 °F /  15.7 °C 35.8 °F /  2.1 °C 30.2in /  1021.3hPa ENE 2mph /  3.2km/h 3mph /  4.8km/h 40% 0in /  0.0mm 506 W/m2
16:28 60.3 °F /  15.7 °C 36.5 °F /  2.5 °C 30.2in /  1021.3hPa ESE 2mph /  3.2km/h 3mph /  4.8km/h 41% 0in /  0.0mm 496 W/m2
16:33 60.4 °F /  15.8 °C 36.7 °F /  2.6 °C 30.2in /  1021.3hPa East 6mph /  9.7km/h 10mph /  16.1km/h 41% 0in /  0.0mm 487 W/m2
16:38 60.4 °F /  15.8 °C 36.7 °F /  2.6 °C 30.2in /  1021.3hPa South 2.9mph /  4.7km/h 4mph /  6.4km/h 41% 0in /  0.0mm 473 W/m2
16:43 60.4 °F /  15.8 °C 37.8 °F /  3.2 °C 30.2in /  1021.0hPa ESE 4mph /  6.4km/h 10mph /  16.1km/h 43% 0in /  0.0mm 468 W/m2
16:48 60.6 °F /  15.9 °C 36.9 °F /  2.7 °C 30.2in /  1021.0hPa SSE 2.9mph /  4.7km/h 4mph /  6.4km/h 41% 0in /  0.0mm 459 W/m2
16:53 60.8 °F /  16 °C 36.9 °F /  2.7 °C 30.2in /  1021.0hPa ESE 4mph /  6.4km/h 4mph /  6.4km/h 41% 0in /  0.0mm 420 W/m2
16:58 60.6 °F /  15.9 °C 36.1 °F /  2.3 °C 30.2in /  1021.0hPa ESE 0.9mph /  1.4km/h 2mph /  3.2km/h 40% 0in /  0.0mm 418 W/m2
17:03 60.6 °F /  15.9 °C 36.9 °F /  2.7 °C 30.2in /  1021.0hPa ENE 2.9mph /  4.7km/h 10mph /  16.1km/h 41% 0in /  0.0mm 420 W/m2
17:08 61 °F /  16.1 °C 37 °F /  2.8 °C 30.2in /  1021.0hPa NW 0.9mph /  1.4km/h 3mph /  4.8km/h 41% 0in /  0.0mm 411 W/m2
17:13 61.2 °F /  16.2 °C 36.7 °F /  2.6 °C 30.2in /  1021.0hPa East 4mph /  6.4km/h 10mph /  16.1km/h 40% 0in /  0.0mm 401 W/m2
17:18 61.3 °F /  16.3 °C 36.1 °F /  2.3 °C 30.2in /  1021.0hPa SE 0.9mph /  1.4km/h 4mph /  6.4km/h 39% 0in /  0.0mm 387 W/m2
17:24 61.3 °F /  16.3 °C 35.6 °F /  2 °C 30.2in /  1021.0hPa ENE 4mph /  6.4km/h 6mph /  9.7km/h 38% 0in /  0.0mm 371 W/m2
17:29 61.2 °F /  16.2 °C 36.7 °F /  2.6 °C 30.2in /  1021.0hPa NNE 0.9mph /  1.4km/h 3mph /  4.8km/h 40% 0in /  0.0mm 362 W/m2
17:34 61.5 °F /  16.4 °C 36.3 °F /  2.4 °C 30.2in /  1021.0hPa ENE 2.9mph /  4.7km/h 4mph /  6.4km/h 39% 0in /  0.0mm 350 W/m2
17:39 61.9 °F /  16.6 °C 36 °F /  2.2 °C 30.2in /  1021.0hPa ENE 2mph /  3.2km/h 4mph /  6.4km/h 38% 0in /  0.0mm 336 W/m2
17:44 61.9 °F /  16.6 °C 35.2 °F /  1.8 °C 30.2in /  1021.0hPa SSE 0.9mph /  1.4km/h 6mph /  9.7km/h 37% 0in /  0.0mm 323 W/m2
17:49 61.9 °F /  16.6 °C 35.2 °F /  1.8 °C 30.2in /  1021.0hPa ENE 4mph /  6.4km/h 4mph /  6.4km/h 37% 0in /  0.0mm 306 W/m2
17:54 61.7 °F /  16.5 °C 35.8 °F /  2.1 °C 30.2in /  1021.0hPa East 2mph /  3.2km/h 4mph /  6.4km/h 38% 0in /  0.0mm 299 W/m2
17:59 61.5 °F /  16.4 °C 35.6 °F /  2 °C 30.2in /  1021.0hPa East 0.9mph /  1.4km/h 5mph /  8km/h 38% 0in /  0.0mm 285 W/m2
18:04 61.5 °F /  16.4 °C 35.1 °F /  1.7 °C 30.1in /  1020.7hPa ENE 4.9mph /  7.9km/h 7mph /  11.3km/h 37% 0in /  0.0mm 272 W/m2
18:09 61.5 °F /  16.4 °C 35.6 °F /  2 °C 30.1in /  1020.7hPa ENE 4mph /  6.4km/h 8mph /  12.9km/h 38% 0in /  0.0mm 260 W/m2
18:14 61.3 °F /  16.3 °C 36.1 °F /  2.3 °C 30.1in /  1020.7hPa East 2.9mph /  4.7km/h 4mph /  6.4km/h 39% 0in /  0.0mm 246 W/m2
18:19 61.3 °F /  16.3 °C 36.1 °F /  2.3 °C 30.1in /  1020.7hPa East 6.9mph /  11.1km/h 7mph /  11.3km/h 39% 0in /  0.0mm 230 W/m2
18:24 61.2 °F /  16.2 °C 35.4 °F /  1.9 °C 30.1in /  1020.7hPa ENE 2mph /  3.2km/h 4mph /  6.4km/h 38% 0in /  0.0mm 216 W/m2
18:29 61 °F /  16.1 °C 35.8 °F /  2.1 °C 30.1in /  1020.7hPa ENE 0.9mph /  1.4km/h 2mph /  3.2km/h 39% 0in /  0.0mm 200 W/m2
18:34 61.2 °F /  16.2 °C 36 °F /  2.2 °C 30.1in /  1020.7hPa ESE 2mph /  3.2km/h 3mph /  4.8km/h 39% 0in /  0.0mm 186 W/m2
18:39 61.3 °F /  16.3 °C 36.1 °F /  2.3 °C 30.1in /  1020.7hPa SE 2.9mph /  4.7km/h 4mph /  6.4km/h 39% 0in /  0.0mm 172 W/m2
18:44 61.3 °F /  16.3 °C 36.1 °F /  2.3 °C 30.1in /  1020.7hPa ENE 2.9mph /  4.7km/h 5mph /  8km/h 39% 0in /  0.0mm 155 W/m2
18:49 61.2 °F /  16.2 °C 36 °F /  2.2 °C 30.1in /  1020.7hPa ESE 0.9mph /  1.4km/h 4mph /  6.4km/h 39% 0in /  0.0mm 141 W/m2
18:54 61.2 °F /  16.2 °C 36 °F /  2.2 °C 30.2in /  1021.0hPa ESE 6mph /  9.7km/h 6mph /  9.7km/h 39% 0in /  0.0mm 127 W/m2
18:59 60.8 °F /  16 °C 36.3 °F /  2.4 °C 30.2in /  1021.0hPa East 2mph /  3.2km/h 2mph /  3.2km/h 40% 0in /  0.0mm 111 W/m2
19:04 60.6 °F /  15.9 °C 35.6 °F /  2 °C 30.1in /  1020.7hPa SE 2mph /  3.2km/h 4mph /  6.4km/h 39% 0in /  0.0mm 97 W/m2
19:09 60.4 °F /  15.8 °C 36 °F /  2.2 °C 30.2in /  1021.0hPa ESE 0.9mph /  1.4km/h 2mph /  3.2km/h 40% 0in /  0.0mm 83 W/m2
19:14 60.3 °F /  15.7 °C 35.8 °F /  2.1 °C 30.2in /  1021.0hPa SE 0.9mph /  1.4km/h 3mph /  4.8km/h 40% 0in /  0.0mm 72 W/m2
19:19 60.3 °F /  15.7 °C 37 °F /  2.8 °C 30.2in /  1021.0hPa Calm   2mph /  3.2km/h 42% 0in /  0.0mm 62 W/m2
19:24 60.1 °F /  15.6 °C 36.3 °F /  2.4 °C 30.2in /  1021.0hPa East 2.9mph /  4.7km/h 3mph /  4.8km/h 41% 0in /  0.0mm 51 W/m2
19:29 59.5 °F /  15.3 °C 34.5 °F /  1.4 °C 30.2in /  1021.0hPa ESE 0.9mph /  1.4km/h 7mph /  11.3km/h 39% 0in /  0.0mm 25 W/m2
19:34 59.2 °F /  15.1 °C 34.9 °F /  1.6 °C 30.2in /  1021.0hPa ESE 0.9mph /  1.4km/h 4mph /  6.4km/h 40% 0in /  0.0mm 21 W/m2
19:39 58.3 °F /  14.6 °C 37 °F /  2.8 °C 30.2in /  1021.0hPa Calm   7mph /  11.3km/h 45% 0in /  0.0mm 18 W/m2
19:44 57.4 °F /  14.1 °C 36.7 °F /  2.6 °C 30.2in /  1021.0hPa Calm     46% 0in /  0.0mm 16 W/m2
19:49 56.7 °F /  13.7 °C 36.7 °F /  2.6 °C 30.2in /  1021.0hPa Calm     47% 0in /  0.0mm 14 W/m2
19:54 55.8 °F /  13.2 °C 36.9 °F /  2.7 °C 30.2in /  1021.0hPa Calm     49% 0in /  0.0mm 12 W/m2
19:59 55 °F /  12.8 °C 36.7 °F /  2.6 °C 30.2in /  1021.0hPa Calm     50% 0in /  0.0mm 11 W/m2
20:04 54.3 °F /  12.4 °C 36.5 °F /  2.5 °C 30.2in /  1021.0hPa Calm     51% 0in /  0.0mm 9 W/m2
20:09 53.8 °F /  12.1 °C 37 °F /  2.8 °C 30.2in /  1021.0hPa ESE 0.9mph /  1.4km/h 2mph /  3.2km/h 53% 0in /  0.0mm 7 W/m2
20:14 53.1 °F /  11.7 °C 36.9 °F /  2.7 °C 30.2in /  1021.0hPa ESE 0.9mph /  1.4km/h 2mph /  3.2km/h 54% 0in /  0.0mm 5 W/m2
20:19 52.5 °F /  11.4 °C 36.3 °F /  2.4 °C 30.2in /  1021.0hPa ESE 0.9mph /  1.4km/h 2mph /  3.2km/h 54% 0in /  0.0mm 0 W/m2
20:24 52 °F /  11.1 °C 36.3 °F /  2.4 °C 30.2in /  1021.0hPa ESE 0.9mph /  1.4km/h 2mph /  3.2km/h 55% 0in /  0.0mm 0 W/m2
20:29 51.4 °F /  10.8 °C 36.3 °F /  2.4 °C 30.2in /  1021.0hPa ESE 0.9mph /  1.4km/h 2mph /  3.2km/h 56% 0in /  0.0mm 0 W/m2
20:34 51.1 °F /  10.6 °C 36.3 °F /  2.4 °C 30.2in /  1021.0hPa ESE 2mph /  3.2km/h 2mph /  3.2km/h 57% 0in /  0.0mm 0 W/m2
20:39 50.4 °F /  10.2 °C 36.1 °F /  2.3 °C 30.2in /  1021.0hPa ESE 0.9mph /  1.4km/h 1mph /  1.6km/h 58% 0in /  0.0mm 0 W/m2
20:44 49.8 °F /  9.9 °C 36.1 °F /  2.3 °C 30.2in /  1021.3hPa ESE 0.9mph /  1.4km/h 1mph /  1.6km/h 59% 0in /  0.0mm 0 W/m2
20:49 49.5 °F /  9.7 °C 36.1 °F /  2.3 °C 30.2in /  1021.3hPa ESE 0.9mph /  1.4km/h 1mph /  1.6km/h 60% 0in /  0.0mm 0 W/m2
20:54 49.1 °F /  9.5 °C 35.8 °F /  2.1 °C 30.2in /  1021.3hPa ESE 0.9mph /  1.4km/h 2mph /  3.2km/h 60% 0in /  0.0mm 0 W/m2
20:59 48.7 °F /  9.3 °C 36 °F /  2.2 °C 30.2in /  1021.3hPa Calm   1mph /  1.6km/h 61% 0in /  0.0mm 0 W/m2
21:04 48.6 °F /  9.2 °C 36.1 °F /  2.3 °C 30.2in /  1021.3hPa Calm   1mph /  1.6km/h 62% 0in /  0.0mm 0 W/m2
21:09 48.2 °F /  9 °C 35.8 °F /  2.1 °C 30.2in /  1021.3hPa ESE 0.9mph /  1.4km/h 1mph /  1.6km/h 62% 0in /  0.0mm 0 W/m2
21:14 48 °F /  8.9 °C 36 °F /  2.2 °C 30.2in /  1021.3hPa ESE 0.9mph /  1.4km/h 1mph /  1.6km/h 63% 0in /  0.0mm 0 W/m2
21:19 47.7 °F /  8.7 °C 35.6 °F /  2 °C 30.2in /  1021.3hPa ESE 0.9mph /  1.4km/h 1mph /  1.6km/h 63% 0in /  0.0mm 0 W/m2
21:24 47.7 °F /  8.7 °C 36.1 °F /  2.3 °C 30.2in /  1021.3hPa ESE 0.9mph /  1.4km/h 2mph /  3.2km/h 64% 0in /  0.0mm 0 W/m2
21:29 47.3 °F /  8.5 °C 35.8 °F /  2.1 °C 30.2in /  1021.3hPa Calm   1mph /  1.6km/h 64% 0in /  0.0mm 0 W/m2
21:34 47.1 °F /  8.4 °C 35.6 °F /  2 °C 30.2in /  1021.3hPa Calm   1mph /  1.6km/h 64% 0in /  0.0mm 0 W/m2
21:39 46.9 °F /  8.3 °C 35.8 °F /  2.1 °C 30.2in /  1021.7hPa Calm     65% 0in /  0.0mm 0 W/m2
21:44 46.8 °F /  8.2 °C 36 °F /  2.2 °C 30.2in /  1021.7hPa Calm     66% 0in /  0.0mm 0 W/m2
21:49 46.6 °F /  8.1 °C 35.8 °F /  2.1 °C 30.2in /  1021.7hPa Calm   1mph /  1.6km/h 66% 0in /  0.0mm 0 W/m2
21:54 46.4 °F /  8 °C 36 °F /  2.2 °C 30.2in /  1021.7hPa ESE 0.9mph /  1.4km/h 1mph /  1.6km/h 67% 0in /  0.0mm 0 W/m2
21:59 46.2 °F /  7.9 °C 36 °F /  2.2 °C 30.2in /  1021.7hPa ESE 0.9mph /  1.4km/h 2mph /  3.2km/h 67% 0in /  0.0mm 0 W/m2
22:04 46.2 °F /  7.9 °C 36 °F /  2.2 °C 30.2in /  1021.7hPa Calm     67% 0in /  0.0mm 0 W/m2
22:09 46 °F /  7.8 °C 35.8 °F /  2.1 °C 30.2in /  1021.7hPa Calm     67% 0in /  0.0mm 0 W/m2
22:14 46 °F /  7.8 °C 36.1 °F /  2.3 °C 30.2in /  1021.7hPa Calm     68% 0in /  0.0mm 0 W/m2
22:19 45.9 °F /  7.7 °C 36 °F /  2.2 °C 30.2in /  1021.7hPa Calm     68% 0in /  0.0mm 0 W/m2
22:24 45.9 °F /  7.7 °C 36 °F /  2.2 °C 30.2in /  1021.7hPa Calm     68% 0in /  0.0mm 0 W/m2
22:29 45.7 °F /  7.6 °C 35.8 °F /  2.1 °C 30.2in /  1021.7hPa Calm     68% 0in /  0.0mm 0 W/m2
22:34 45.3 °F /  7.4 °C 35.8 °F /  2.1 °C 30.2in /  1021.7hPa Calm     69% 0in /  0.0mm 0 W/m2
22:39 45.1 °F /  7.3 °C 35.6 °F /  2 °C 30.2in /  1021.7hPa Calm     69% 0in /  0.0mm 0 W/m2
22:44 45.1 °F /  7.3 °C 36 °F /  2.2 °C 30.2in /  1021.7hPa Calm     70% 0in /  0.0mm 0 W/m2
22:49 45 °F /  7.2 °C 35.8 °F /  2.1 °C 30.2in /  1021.7hPa Calm     70% 0in /  0.0mm 0 W/m2
22:54 44.8 °F /  7.1 °C 36 °F /  2.2 °C 30.2in /  1021.7hPa ESE 0.9mph /  1.4km/h 1mph /  1.6km/h 71% 0in /  0.0mm 0 W/m2
22:59 44.4 °F /  6.9 °C 35.6 °F /  2 °C 30.2in /  1021.7hPa Calm   1mph /  1.6km/h 71% 0in /  0.0mm 0 W/m2
23:04 44.4 °F /  6.9 °C 35.6 °F /  2 °C 30.2in /  1021.7hPa ESE 0.9mph /  1.4km/h 2mph /  3.2km/h 71% 0in /  0.0mm 0 W/m2
23:09 44.2 °F /  6.8 °C 35.4 °F /  1.9 °C 30.2in /  1021.7hPa ESE 0.9mph /  1.4km/h 2mph /  3.2km/h 71% 0in /  0.0mm 0 W/m2
23:14 44.2 °F /  6.8 °C 35.8 °F /  2.1 °C 30.2in /  1021.7hPa Calm   1mph /  1.6km/h 72% 0in /  0.0mm 0 W/m2
23:20 44.1 °F /  6.7 °C 35.6 °F /  2 °C 30.2in /  1021.7hPa Calm   2mph /  3.2km/h 72% 0in /  0.0mm 0 W/m2
23:25 44.1 °F /  6.7 °C 35.6 °F /  2 °C 30.2in /  1021.7hPa ESE 0.9mph /  1.4km/h 2mph /  3.2km/h 72% 0in /  0.0mm 0 W/m2
23:30 44.1 °F /  6.7 °C 35.6 °F /  2 °C 30.2in /  1021.7hPa ESE 0.9mph /  1.4km/h 2mph /  3.2km/h 72% 0in /  0.0mm 0 W/m2
23:35 44.1 °F /  6.7 °C 35.6 °F /  2 °C 30.2in /  1021.7hPa Calm   1mph /  1.6km/h 72% 0in /  0.0mm 0 W/m2
23:40 44.2 °F /  6.8 °C 35.4 °F /  1.9 °C 30.2in /  1021.7hPa Calm     71% 0in /  0.0mm 0 W/m2
23:45 44.2 °F /  6.8 °C 35.4 °F /  1.9 °C 30.2in /  1021.7hPa Calm     71% 0in /  0.0mm 0 W/m2
23:50 44.2 °F /  6.8 °C 35.4 °F /  1.9 °C 30.2in /  1021.7hPa Calm   1mph /  1.6km/h 71% 0in /  0.0mm 0 W/m2
23:55 44.1 °F /  6.7 °C 35.2 °F /  1.8 °C 30.2in /  1021.7hPa ESE 0.9mph /  1.4km/h 1mph /  1.6km/h 71% 0in /  0.0mm 0 W/m2
Juneau County Weather
Compliments of Weather Underground - 2 mb